Flight Track Log - Related Links

Times and Time Zones

All times are in EDT time to prevent confusion due to time zone crossing. See the CTL21 flight status page for this flight to view local times or setup timezone preferences in your user account.


Time Position Orientation Groundspeed Altitude Reporting Facility
EDT Latitude Longitude Course Direction KTS MPH feet Rate Location/Type
Wed 05:20:08 PM 42.1378 -85.5094 116° Southeast 159 183 4,000  Level Chicago Center
Wed 05:21:10 PM 42.1164 -85.4583 119° Southeast 156 180 4,600 581 Climbing Chicago Center
Wed 05:22:12 PM 42.0961 -85.4031 116° Southeast 161 185 5,200 677 Climbing Chicago Center
Wed 05:23:00 PM 42.0789 -85.1882 117° Southeast  Level FlightAware Approximate
Wed 05:23:14 PM 42.0706 -85.3372 118° Southeast 165 190 6,000  Level Chicago Center
Wed 05:24:00 PM 42.0555 -85.1262 117° Southeast  Level FlightAware Approximate
Wed 05:24:16 PM 42.0506 -85.2817 116° Southeast 165 190 6,400  Level Chicago Center
Wed 05:25:18 PM 42.0322 -85.2236 113° Southeast 166 191 6,900 290 Climbing Chicago Center
Wed 05:26:20 PM 42.0108 -85.1611 115° Southeast 177 204 7,000 48 Climbing Chicago Center
Wed 05:27:22 PM 41.9858 -85.0933 116° Southeast 195 224 7,000  Level Chicago Center
Wed 05:28:24 PM 41.9600 -85.0253 117° Southeast 202 232 7,000 48 Level Chicago Center
Wed 05:29:27 PM 41.9361 -84.9581 116° Southeast 201 231 7,100  Climbing Chicago Center
Wed 05:30:29 PM 41.9081 -84.8764 115° Southeast 199 229 7,000  Descending Chicago Center
Wed 05:31:31 PM 41.8836 -84.8097 116° Southeast 199 229 7,100 48 Climbing Chicago Center
Wed 05:32:33 PM 41.8581 -84.7422 117° Southeast 201 231 7,100  Level Chicago Center
Wed 05:33:35 PM 41.8331 -84.6744 116° Southeast 202 232 7,100  Level Chicago Center
Wed 05:34:37 PM 41.8081 -84.6044 116° Southeast 205 236 7,100  Level Chicago Center
Wed 05:35:39 PM 41.7833 -84.5347 115° Southeast 207 238 7,100  Level Chicago Center
Wed 05:36:41 PM 41.7553 -84.4531 115° Southeast 204 235 7,100  Level Chicago Center
Wed 05:37:43 PM 41.7306 -84.3844 116° Southeast 204 235 7,100  Level Chicago Center
Wed 05:38:45 PM 41.7053 -84.3153 116° Southeast 205 236 7,100  Level Chicago Center
Wed 05:39:47 PM 41.6808 -84.2467 115° Southeast 205 236 7,100  Level Chicago Center
Wed 05:40:50 PM 41.6539 -84.1739 116° Southeast 204 235 7,100  Level Chicago Center
Wed 05:41:52 PM 41.6317 -84.1122 116° Southeast 203 234 7,100  Level Chicago Center

Login

Don't have an account? Register now (free) for customized features, flight alerts, and more!